createdAt,value
2019-06-15T00:00:11.858Z,14.00
2019-06-15T00:02:40.526Z,14.43
2019-06-15T00:05:09.167Z,13.90
2019-06-15T00:07:37.701Z,11.60
2019-06-15T00:10:07.492Z,11.87
2019-06-15T00:12:36.062Z,10.87
2019-06-15T00:15:06.546Z,11.80
2019-06-15T00:17:35.047Z,12.40
2019-06-15T00:20:04.631Z,11.80
2019-06-15T00:22:33.172Z,12.47
2019-06-15T00:25:01.826Z,11.80
2019-06-15T00:27:30.424Z,12.20
2019-06-15T00:29:59.133Z,12.57
2019-06-15T00:32:27.694Z,12.17
2019-06-15T00:34:56.382Z,11.60
2019-06-15T00:37:25.027Z,12.20
2019-06-15T00:39:53.562Z,12.93
2019-06-15T00:42:22.133Z,11.63
2019-06-15T00:44:50.756Z,12.70
2019-06-15T00:47:19.409Z,12.50
2019-06-15T00:49:48.098Z,12.50
2019-06-15T00:52:16.779Z,13.47
2019-06-15T00:54:50.285Z,13.37
2019-06-15T00:57:15.669Z,13.13
2019-06-15T00:59:44.312Z,13.00
2019-06-15T01:02:12.989Z,12.33
2019-06-15T01:04:41.563Z,11.63
2019-06-15T01:07:10.179Z,12.40
2019-06-15T01:09:38.821Z,12.07
2019-06-15T01:12:07.392Z,13.17
2019-06-15T01:14:36.071Z,13.33
2019-06-15T01:17:04.747Z,13.53
2019-06-15T01:19:33.323Z,14.30
2019-06-15T01:22:02.003Z,12.97
2019-06-15T01:24:30.641Z,14.53
2019-06-15T01:26:59.297Z,13.73
2019-06-15T01:29:27.857Z,16.47
2019-06-15T01:31:56.542Z,16.00
2019-06-15T01:34:25.189Z,15.37
2019-06-15T01:36:53.689Z,17.27
2019-06-15T01:39:22.291Z,17.17
2019-06-15T01:41:50.786Z,13.87
2019-06-15T01:44:19.321Z,13.60
2019-06-15T01:46:47.958Z,12.83
2019-06-15T01:49:16.525Z,13.27
2019-06-15T01:51:45.126Z,11.60
2019-06-15T01:54:13.725Z,11.43
2019-06-15T01:56:42.394Z,11.57
2019-06-15T01:59:11.002Z,11.23
2019-06-15T02:01:39.646Z,12.20
2019-06-15T02:04:08.323Z,12.23
2019-06-15T02:06:36.894Z,15.10
2019-06-15T02:09:08.559Z,12.93
2019-06-15T02:11:37.198Z,12.70
2019-06-15T02:14:06.185Z,12.63
2019-06-15T02:16:34.855Z,12.53
2019-06-15T02:19:03.606Z,13.23
2019-06-15T02:21:32.174Z,13.03
2019-06-15T02:24:03.985Z,11.77
2019-06-15T02:26:32.663Z,12.13
2019-06-15T02:29:01.226Z,11.93
2019-06-15T02:31:29.884Z,11.93
2019-06-15T02:33:58.551Z,10.73
2019-06-15T02:36:27.235Z,11.27
2019-06-15T02:38:55.872Z,12.10
2019-06-15T02:41:24.443Z,12.93
2019-06-15T02:43:53.066Z,12.77
2019-06-15T02:46:25.980Z,14.90
2019-06-15T02:48:52.315Z,21.00
2019-06-15T02:51:21.653Z,19.43
2019-06-15T02:53:50.534Z,17.57
2019-06-15T02:56:19.097Z,17.87
2019-06-15T02:58:47.789Z,21.27
2019-06-15T03:01:16.445Z,20.60
2019-06-15T03:03:45.083Z,18.53
2019-06-15T03:06:13.747Z,14.93
2019-06-15T03:08:42.690Z,12.67
2019-06-15T03:11:11.362Z,11.93
2019-06-15T03:13:39.932Z,13.53
2019-06-15T03:16:08.569Z,14.90
2019-06-15T03:18:37.129Z,14.43
2019-06-15T03:21:05.779Z,13.80
2019-06-15T03:23:34.425Z,14.97
2019-06-15T03:26:05.837Z,14.17
2019-06-15T03:28:33.334Z,14.10
2019-06-15T03:31:01.920Z,13.53
2019-06-15T03:33:30.538Z,16.37
2019-06-15T03:35:59.152Z,16.03
2019-06-15T03:38:27.756Z,14.53
2019-06-15T03:40:56.282Z,13.60
2019-06-15T03:43:24.790Z,12.67
2019-06-15T03:45:53.398Z,12.63
2019-06-15T03:48:22.051Z,13.00
2019-06-15T03:50:50.604Z,12.43
2019-06-15T03:53:19.158Z,12.53
2019-06-15T03:55:47.763Z,13.03
2019-06-15T03:58:19.142Z,14.20
2019-06-15T04:00:50.291Z,15.43
2019-06-15T04:03:18.934Z,13.50
2019-06-15T04:05:47.582Z,13.37
2019-06-15T04:08:16.180Z,13.70
2019-06-15T04:10:44.819Z,13.40
2019-06-15T04:13:13.497Z,12.50
2019-06-15T04:15:42.101Z,17.57
2019-06-15T04:18:10.684Z,15.70
2019-06-15T04:20:39.387Z,14.70
2019-06-15T04:23:08.040Z,15.53
2019-06-15T04:25:36.667Z,12.90
2019-06-15T04:28:05.514Z,11.93
2019-06-15T04:30:34.107Z,10.40
2019-06-15T04:33:02.677Z,10.50
2019-06-15T04:35:31.370Z,10.43
2019-06-15T04:37:59.982Z,10.30
2019-06-15T04:40:28.614Z,9.90
2019-06-15T04:42:57.230Z,8.93
2019-06-15T04:45:25.800Z,11.10
2019-06-15T04:47:54.445Z,10.90
2019-06-15T04:50:23.052Z,10.32
2019-06-15T04:52:51.685Z,9.57
2019-06-15T04:55:20.285Z,8.83
2019-06-15T04:57:48.818Z,8.65
2019-06-15T05:00:18.920Z,8.83
2019-06-15T05:02:47.440Z,8.70
2019-06-15T05:05:16.284Z,8.90
2019-06-15T05:07:44.887Z,9.48
2019-06-15T05:10:13.653Z,13.78
2019-06-15T05:12:42.266Z,13.08
2019-06-15T05:15:11.195Z,9.43
2019-06-15T05:17:39.803Z,9.43
2019-06-15T05:20:10.136Z,8.05
2019-06-15T05:22:38.812Z,10.08
2019-06-15T05:25:10.968Z,9.13
2019-06-15T05:27:39.615Z,15.63
2019-06-15T05:30:09.302Z,10.23
2019-06-15T05:32:37.926Z,10.43
2019-06-15T05:35:08.765Z,10.58
2019-06-15T05:37:37.396Z,9.48
2019-06-15T05:40:06.764Z,10.03
2019-06-15T05:42:35.408Z,9.85
2019-06-15T05:45:05.970Z,10.82
2019-06-15T05:47:34.541Z,11.75
2019-06-15T05:50:04.020Z,12.75
2019-06-15T05:52:32.604Z,13.93
2019-06-15T05:55:01.115Z,10.85
2019-06-15T05:57:29.723Z,10.78
2019-06-15T05:59:58.224Z,8.38
2019-06-15T06:02:26.751Z,8.83
2019-06-15T06:04:55.415Z,8.30
2019-06-15T06:07:24.094Z,8.03
2019-06-15T06:09:52.659Z,8.08
2019-06-15T06:12:21.295Z,7.90
2019-06-15T06:14:49.904Z,7.87
2019-06-15T06:17:18.536Z,9.15
2019-06-15T06:19:47.146Z,8.43
2019-06-15T06:22:15.710Z,8.08
2019-06-15T06:24:44.326Z,8.75
2019-06-15T06:27:13.008Z,9.13
2019-06-15T06:29:42.001Z,7.60
2019-06-15T06:32:10.563Z,6.60
2019-06-15T06:34:40.131Z,7.12
2019-06-15T06:37:08.688Z,7.15
2019-06-15T06:39:37.302Z,7.47
2019-06-15T06:42:05.943Z,6.20
2019-06-15T06:44:34.533Z,7.25
2019-06-15T06:47:03.059Z,6.15
2019-06-15T06:49:31.689Z,6.03
2019-06-15T06:52:00.425Z,5.70
2019-06-15T06:54:29.062Z,6.15
2019-06-15T06:56:57.617Z,6.03
2019-06-15T06:59:26.219Z,6.10
2019-06-15T07:01:54.716Z,6.70
2019-06-15T07:04:23.281Z,6.25
2019-06-15T07:06:51.803Z,5.85
2019-06-15T07:09:20.374Z,6.70
2019-06-15T07:11:48.978Z,6.17
2019-06-15T07:14:17.613Z,5.53
2019-06-15T07:16:46.246Z,5.17
2019-06-15T07:19:14.750Z,5.08
2019-06-15T07:21:43.315Z,5.00
2019-06-15T07:24:12.009Z,4.62
2019-06-15T07:26:40.641Z,3.35
2019-06-15T07:29:09.208Z,3.67
2019-06-15T07:31:37.849Z,4.20
2019-06-15T07:34:06.476Z,4.25
2019-06-15T07:36:34.974Z,4.95
2019-06-15T07:39:04.176Z,4.00
2019-06-15T07:41:32.709Z,3.85
2019-06-15T07:44:01.430Z,3.87
2019-06-15T07:46:30.085Z,3.55
2019-06-15T07:48:58.773Z,4.40
2019-06-15T07:51:27.631Z,3.65
2019-06-15T07:53:56.246Z,4.08
2019-06-15T07:56:24.794Z,4.42
2019-06-15T07:58:53.473Z,4.70
2019-06-15T08:01:22.111Z,4.03
2019-06-15T08:03:50.727Z,4.62
2019-06-15T08:06:19.354Z,3.62
2019-06-15T08:08:48.000Z,4.10
2019-06-15T08:11:22.782Z,4.42
2019-06-15T08:13:51.334Z,4.75
2019-06-15T08:16:19.894Z,3.37
2019-06-15T08:18:48.498Z,2.75
2019-06-15T08:21:17.144Z,3.37
2019-06-15T08:23:45.752Z,3.33
2019-06-15T08:26:14.390Z,2.50
2019-06-15T08:28:42.933Z,3.22
2019-06-15T08:31:11.616Z,2.90
2019-06-15T08:33:40.137Z,3.27
2019-06-15T08:36:08.871Z,3.50
2019-06-15T08:38:37.569Z,2.22
2019-06-15T08:41:06.197Z,2.35
2019-06-15T08:43:34.811Z,2.45
2019-06-15T08:46:03.941Z,2.47
2019-06-15T08:48:32.552Z,2.70
2019-06-15T08:51:01.040Z,2.65
2019-06-15T08:53:29.742Z,2.80
2019-06-15T08:55:58.314Z,2.60
2019-06-15T08:58:26.855Z,2.65
2019-06-15T09:00:55.547Z,2.45
2019-06-15T09:03:24.181Z,2.85
2019-06-15T09:05:52.855Z,2.58
2019-06-15T09:08:21.415Z,2.37
2019-06-15T09:10:52.905Z,2.58
2019-06-15T09:13:21.565Z,2.60
2019-06-15T09:15:56.227Z,2.67
2019-06-15T09:18:24.789Z,2.55
2019-06-15T09:20:53.423Z,2.50
2019-06-15T09:23:22.095Z,2.52
2019-06-15T09:25:50.726Z,2.70
2019-06-15T09:28:19.364Z,2.92
2019-06-15T09:30:48.055Z,2.05
2019-06-15T09:33:16.710Z,2.22
2019-06-15T09:35:45.250Z,2.60
2019-06-15T09:38:13.894Z,2.42
2019-06-15T09:40:42.530Z,2.35
2019-06-15T09:43:11.202Z,2.20
2019-06-15T09:45:39.841Z,2.30
2019-06-15T09:48:08.520Z,2.42
2019-06-15T09:50:37.128Z,1.82
2019-06-15T09:53:05.776Z,1.70
2019-06-15T09:55:34.454Z,1.57
2019-06-15T09:58:03.093Z,2.00
2019-06-15T10:00:31.809Z,2.15
2019-06-15T10:03:00.432Z,2.10
2019-06-15T10:05:29.115Z,1.75
2019-06-15T10:07:57.670Z,2.35
2019-06-15T10:10:26.349Z,1.80
2019-06-15T10:12:54.914Z,2.25
2019-06-15T10:15:23.992Z,1.40
2019-06-15T10:17:52.594Z,1.82
2019-06-15T10:20:21.275Z,1.75
2019-06-15T10:22:52.661Z,1.85
2019-06-15T10:25:21.363Z,1.57
2019-06-15T10:27:49.999Z,1.95
2019-06-15T10:30:18.732Z,1.90
2019-06-15T10:32:47.430Z,1.70
2019-06-15T10:35:16.070Z,2.35
2019-06-15T10:37:44.685Z,1.77
2019-06-15T10:40:13.714Z,1.87
2019-06-15T10:42:42.393Z,1.60
2019-06-15T10:45:11.119Z,1.42
2019-06-15T10:47:39.694Z,1.80
2019-06-15T10:50:08.642Z,1.60
2019-06-15T10:52:37.273Z,1.35
2019-06-15T10:55:07.015Z,1.50
2019-06-15T10:57:35.640Z,1.42
2019-06-15T11:00:07.358Z,1.47
2019-06-15T11:02:35.973Z,2.02
2019-06-15T11:05:06.550Z,1.72
2019-06-15T11:07:35.378Z,1.20
2019-06-15T11:10:06.083Z,1.15
2019-06-15T11:12:45.711Z,1.40
2019-06-15T11:15:07.072Z,2.08
2019-06-15T11:17:35.660Z,1.37
2019-06-15T11:20:04.988Z,1.52
2019-06-15T11:22:33.632Z,2.77
2019-06-15T11:25:02.269Z,1.90
2019-06-15T11:27:30.891Z,1.60
2019-06-15T11:30:12.539Z,1.70
2019-06-15T11:32:29.805Z,1.60
2019-06-15T11:34:58.446Z,1.80
2019-06-15T11:37:27.015Z,1.62
2019-06-15T11:39:55.642Z,1.35
2019-06-15T11:42:24.244Z,1.35
2019-06-15T11:44:52.886Z,2.60
2019-06-15T11:47:21.515Z,1.35
2019-06-15T11:49:50.115Z,1.30
2019-06-15T11:52:18.746Z,1.80
2019-06-15T11:54:50.202Z,1.82
2019-06-15T11:57:18.943Z,1.67
2019-06-15T11:59:47.500Z,0.90
2019-06-15T12:02:16.018Z,1.30
2019-06-15T12:04:57.658Z,1.45
2019-06-15T12:07:14.905Z,1.80
2019-06-15T12:09:43.474Z,1.47
2019-06-15T12:12:12.157Z,0.95
2019-06-15T12:14:40.806Z,1.40
2019-06-15T12:17:09.365Z,1.30
2019-06-15T12:19:37.904Z,1.47
2019-06-15T12:22:06.641Z,1.50
2019-06-15T12:24:35.194Z,1.57
2019-06-15T12:27:03.782Z,1.12
2019-06-15T12:29:32.632Z,1.40
2019-06-15T12:32:01.193Z,1.20
2019-06-15T12:34:29.907Z,1.42
2019-06-15T12:36:58.511Z,1.35
2019-06-15T12:39:27.146Z,1.30
2019-06-15T12:41:55.797Z,1.15
2019-06-15T12:44:24.537Z,1.05
2019-06-15T12:46:53.084Z,1.32
2019-06-15T12:49:21.683Z,1.20
2019-06-15T12:51:50.241Z,1.52
2019-06-15T12:54:18.743Z,1.42
2019-06-15T12:56:47.318Z,1.37
2019-06-15T12:59:15.924Z,1.65
2019-06-15T13:01:44.639Z,1.87
2019-06-15T13:04:15.888Z,1.82
2019-06-15T13:06:44.512Z,2.15
2019-06-15T13:09:15.865Z,1.67
2019-06-15T13:11:44.582Z,1.47
2019-06-15T13:14:13.147Z,1.90
2019-06-15T13:16:41.756Z,1.67
2019-06-15T13:19:10.389Z,1.95
2019-06-15T13:21:39.112Z,1.25
2019-06-15T13:24:07.671Z,1.45
2019-06-15T13:26:36.190Z,1.95
2019-06-15T13:29:04.826Z,1.12
2019-06-15T13:31:33.457Z,1.60
2019-06-15T13:34:01.962Z,1.65
2019-06-15T13:36:30.521Z,1.40
2019-06-15T13:38:59.025Z,1.85
2019-06-15T13:41:27.611Z,1.37
2019-06-15T13:43:56.230Z,1.67
2019-06-15T13:46:24.877Z,1.30
2019-06-15T13:48:53.352Z,1.37
2019-06-15T13:51:21.860Z,1.80
2019-06-15T13:53:53.137Z,1.30
2019-06-15T13:56:21.767Z,1.57
2019-06-15T13:58:50.339Z,1.98
2019-06-15T14:01:33.301Z,1.55
2019-06-15T14:03:49.376Z,2.15
2019-06-15T14:06:17.941Z,1.90
2019-06-15T14:08:46.424Z,2.17
2019-06-15T14:11:15.056Z,1.70
2019-06-15T14:13:43.559Z,2.40
2019-06-15T14:16:12.135Z,1.80
2019-06-15T14:18:40.795Z,2.05
2019-06-15T14:21:09.383Z,1.70
2019-06-15T14:23:38.014Z,2.02
2019-06-15T14:26:06.644Z,1.52
2019-06-15T14:28:35.227Z,1.72
2019-06-15T14:31:03.816Z,1.98
2019-06-15T14:33:32.336Z,2.15
2019-06-15T14:36:00.899Z,2.08
2019-06-15T14:38:29.521Z,1.98
2019-06-15T14:40:58.219Z,2.27
2019-06-15T14:43:26.851Z,2.10
2019-06-15T14:45:59.536Z,2.30
2019-06-15T14:48:26.024Z,2.60
2019-06-15T14:50:54.584Z,2.22
2019-06-15T14:53:23.327Z,2.15
2019-06-15T14:55:56.501Z,2.22
2019-06-15T14:58:26.279Z,2.35
2019-06-15T15:00:57.141Z,2.30
2019-06-15T15:03:26.344Z,2.58
2019-06-15T15:05:55.107Z,2.02
2019-06-15T15:08:26.229Z,2.65
2019-06-15T15:10:56.226Z,2.08
2019-06-15T15:13:26.406Z,2.40
2019-06-15T15:15:56.802Z,1.90
2019-06-15T15:18:26.964Z,3.22
2019-06-15T15:20:56.448Z,2.40
2019-06-15T15:23:25.213Z,2.40
2019-06-15T15:25:53.837Z,2.60
2019-06-15T15:28:22.477Z,3.90
2019-06-15T15:30:51.111Z,3.05
2019-06-15T15:33:19.728Z,5.12
2019-06-15T15:35:48.373Z,9.45
2019-06-15T15:38:17.011Z,3.12
2019-06-15T15:40:46.865Z,4.92
2019-06-15T15:43:16.011Z,7.20
2019-06-15T15:45:46.054Z,3.50
2019-06-15T15:48:18.535Z,2.77
2019-06-15T15:50:46.973Z,3.47
2019-06-15T15:53:15.400Z,2.58
2019-06-15T15:55:43.976Z,4.08
2019-06-15T15:58:13.393Z,5.22
2019-06-15T16:00:41.959Z,3.50
2019-06-15T16:03:10.596Z,2.95
2019-06-15T16:05:39.223Z,3.22
2019-06-15T16:08:07.857Z,3.80
2019-06-15T16:10:37.372Z,2.92
2019-06-15T16:13:06.666Z,3.12
2019-06-15T16:15:37.143Z,2.67
2019-06-15T16:18:06.742Z,2.90
2019-06-15T16:20:36.955Z,3.62
2019-06-15T16:23:07.581Z,2.87
2019-06-15T16:25:37.171Z,2.62
2019-06-15T16:28:07.103Z,2.55
2019-06-15T16:30:59.842Z,2.58
2019-06-15T16:33:07.782Z,2.80
2019-06-15T16:35:36.774Z,3.12
2019-06-15T16:38:06.847Z,3.22
2019-06-15T16:40:38.699Z,3.05
2019-06-15T16:43:08.162Z,2.90
2019-06-15T16:45:37.448Z,3.05
2019-06-15T16:48:06.495Z,3.40
2019-06-15T16:50:36.611Z,3.20
2019-06-15T16:53:05.536Z,3.15
2019-06-15T16:55:36.699Z,3.35
2019-06-15T16:58:07.133Z,3.58
2019-06-15T17:00:36.417Z,3.37
2019-06-15T17:03:19.660Z,3.12
2019-06-15T17:05:36.214Z,3.52
2019-06-15T17:08:07.015Z,3.45
2019-06-15T17:10:43.219Z,3.40
2019-06-15T17:13:12.002Z,4.12
2019-06-15T17:15:40.836Z,3.90
2019-06-15T17:18:12.016Z,3.60
2019-06-15T17:20:48.755Z,4.28
2019-06-15T17:23:17.578Z,4.22
2019-06-15T17:25:46.278Z,3.90
2019-06-15T17:28:14.967Z,3.95
2019-06-15T17:30:44.230Z,4.00
2019-06-15T17:33:12.872Z,4.87
2019-06-15T17:35:55.059Z,7.75
2019-06-15T17:38:11.926Z,4.67
2019-06-15T17:40:40.513Z,5.15
2019-06-15T17:43:09.196Z,6.08
2019-06-15T17:45:37.754Z,5.40
2019-06-15T17:48:10.717Z,4.58
2019-06-15T17:50:43.316Z,4.85
2019-06-15T17:53:12.029Z,5.00
2019-06-15T17:55:40.659Z,5.62
2019-06-15T17:58:09.215Z,4.70
2019-06-15T18:00:43.496Z,5.05
2019-06-15T18:03:12.552Z,5.17
2019-06-15T18:05:41.311Z,4.92
2019-06-15T18:08:09.976Z,4.90
2019-06-15T18:10:38.580Z,4.60
2019-06-15T18:13:07.259Z,4.60
2019-06-15T18:15:36.312Z,4.75
2019-06-15T18:18:07.075Z,5.47
2019-06-15T18:20:36.441Z,5.40
2019-06-15T18:23:06.095Z,5.15
2019-06-15T18:25:38.742Z,8.28
2019-06-15T18:28:07.375Z,7.70
2019-06-15T18:30:38.778Z,7.75
2019-06-15T18:33:07.454Z,6.75
2019-06-15T18:35:36.335Z,6.22
2019-06-15T18:38:07.139Z,6.08
2019-06-15T18:40:37.205Z,5.30
2019-06-15T18:43:07.279Z,5.70
2019-06-15T18:45:36.267Z,5.47
2019-06-15T18:48:06.187Z,5.10
2019-06-15T18:50:42.350Z,4.85
2019-06-15T18:53:11.138Z,5.28
2019-06-15T18:55:39.765Z,4.62
2019-06-15T18:58:08.467Z,5.40
2019-06-15T19:00:37.269Z,6.65
2019-06-15T19:03:06.917Z,7.20
2019-06-15T19:05:37.204Z,6.40
2019-06-15T19:08:09.292Z,4.70
2019-06-15T19:10:38.024Z,6.47
2019-06-15T19:13:07.542Z,5.40
2019-06-15T19:15:37.248Z,4.55
2019-06-15T19:18:07.310Z,5.28
2019-06-15T19:20:37.251Z,5.35
2019-06-15T19:23:07.095Z,4.97
2019-06-15T19:25:36.497Z,5.00
2019-06-15T19:28:05.842Z,5.62
2019-06-15T19:30:37.182Z,4.40
2019-06-15T19:33:08.229Z,4.75
2019-06-15T19:35:36.859Z,4.85
2019-06-15T19:38:06.547Z,4.85
2019-06-15T19:40:37.742Z,5.00
2019-06-15T19:43:06.636Z,4.53
2019-06-15T19:45:37.028Z,5.72
2019-06-15T19:48:06.765Z,4.97
2019-06-15T19:50:36.248Z,5.20
2019-06-15T19:53:07.144Z,5.33
2019-06-15T19:55:36.297Z,5.75
2019-06-15T19:58:07.119Z,5.33
2019-06-15T20:00:36.402Z,5.12
2019-06-15T20:03:08.425Z,5.90
2019-06-15T20:05:37.396Z,5.92
2019-06-15T20:08:07.021Z,5.58
2019-06-15T20:10:37.067Z,5.90
2019-06-15T20:13:07.164Z,5.92
2019-06-15T20:15:37.675Z,5.75
2019-06-15T20:18:06.954Z,5.60
2019-06-15T20:20:37.125Z,5.85
2019-06-15T20:23:07.330Z,5.72
2019-06-15T20:25:36.970Z,6.35
2019-06-15T20:28:07.233Z,6.92
2019-06-15T20:30:36.961Z,5.83
2019-06-15T20:33:07.846Z,6.50
2019-06-15T20:35:36.379Z,6.35
2019-06-15T20:38:05.072Z,6.20
2019-06-15T20:40:36.227Z,5.90
2019-06-15T20:43:04.176Z,5.70
2019-06-15T20:45:32.822Z,4.95
2019-06-15T20:48:01.469Z,5.47
2019-06-15T20:50:30.109Z,5.17
2019-06-15T20:52:58.721Z,4.72
2019-06-15T20:55:27.353Z,5.10
2019-06-15T20:57:56.802Z,4.03
2019-06-15T21:00:26.327Z,3.98
2019-06-15T21:02:56.206Z,4.55
2019-06-15T21:05:34.708Z,4.03
2019-06-15T21:07:57.693Z,4.37
2019-06-15T21:10:27.908Z,4.80
2019-06-15T21:12:56.468Z,4.55
2019-06-15T21:15:28.072Z,4.72
2019-06-15T21:17:57.069Z,4.67
2019-06-15T21:20:26.725Z,4.45
2019-06-15T21:22:57.203Z,5.10
2019-06-15T21:25:26.427Z,5.12
2019-06-15T21:27:56.734Z,4.78
2019-06-15T21:30:27.068Z,4.40
2019-06-15T21:32:56.105Z,5.37
2019-06-15T21:35:26.734Z,4.55
2019-06-15T21:37:57.235Z,5.10
2019-06-15T21:40:27.336Z,5.67
2019-06-15T21:42:56.381Z,5.05
2019-06-15T21:45:25.106Z,5.33
2019-06-15T21:47:55.922Z,5.70
2019-06-15T21:50:26.875Z,6.03
2019-06-15T21:52:56.489Z,5.90
2019-06-15T21:55:26.894Z,5.35
2019-06-15T21:57:56.450Z,5.73
2019-06-15T22:00:29.716Z,5.35
2019-06-15T22:03:01.380Z,5.33
2019-06-15T22:05:28.788Z,5.60
2019-06-15T22:07:57.345Z,5.33
2019-06-15T22:10:26.589Z,5.50
2019-06-15T22:12:57.239Z,5.67
2019-06-15T22:15:26.547Z,5.93
2019-06-15T22:17:55.198Z,5.50
2019-06-15T22:20:26.214Z,6.10
2019-06-15T22:22:54.089Z,5.73
2019-06-15T22:25:22.723Z,5.90
2019-06-15T22:27:51.388Z,4.93
2019-06-15T22:30:20.153Z,5.03
2019-06-15T22:32:48.657Z,5.62
2019-06-15T22:35:17.532Z,6.10
2019-06-15T22:37:46.744Z,6.50
2019-06-15T22:40:17.181Z,6.03
2019-06-15T22:42:47.001Z,6.60
2019-06-15T22:45:17.219Z,6.67
2019-06-15T22:47:46.812Z,6.77
2019-06-15T22:50:16.107Z,7.03
2019-06-15T22:52:47.154Z,6.37
2019-06-15T22:55:16.575Z,7.60
2019-06-15T22:57:46.079Z,7.20
2019-06-15T23:00:17.128Z,7.17
2019-06-15T23:02:46.096Z,7.80
2019-06-15T23:05:17.190Z,7.23
2019-06-15T23:07:47.229Z,7.77
2019-06-15T23:10:18.668Z,7.47
2019-06-15T23:12:47.201Z,7.47
2019-06-15T23:15:17.407Z,8.10
2019-06-15T23:17:46.783Z,8.73
2019-06-15T23:20:17.059Z,8.30
2019-06-15T23:22:46.774Z,8.17
2019-06-15T23:25:16.804Z,9.10
2019-06-15T23:27:46.947Z,9.27
2019-06-15T23:30:16.233Z,9.57
2019-06-15T23:32:46.893Z,9.50
2019-06-15T23:35:16.789Z,8.60
2019-06-15T23:37:46.488Z,9.60
2019-06-15T23:40:26.961Z,7.67
2019-06-15T23:42:56.674Z,8.30
2019-06-15T23:45:26.863Z,8.00
2019-06-15T23:47:57.535Z,8.20
2019-06-15T23:50:26.561Z,7.73
2019-06-15T23:52:55.323Z,7.00
2019-06-15T23:55:26.951Z,7.33
2019-06-15T23:57:57.058Z,8.17
